Time;durP1;ratioP1;P1;durP2;ratioP2;P2;SDS_P1;SDS_P2;PMS_P1;PMS_P2;Temp;Humidity;BMP_temperature;BMP_pressure;BME280_temperature;BME280_humidity;BME280_pressure;Samples;Min_cycle;Max_cycle;Signal;HPM_P1;HPM_P2
2023/05/13 00:00:16;;;;;;;;;;;;;;;26.34;21.61;98545.72;5072066;28;19924;-85
2023/05/13 00:02:42;;;;;;;;;;;;;;;26.38;21.35;98549.25;5061060;28;20038;-85
2023/05/13 00:05:08;;;;;;;;;;;;;;;26.27;22.07;98551.53;5055744;28;19925;-85
2023/05/13 00:07:34;;;;;;;;;;;;;;;25.89;22.29;98548.34;5061579;28;20433;-85
2023/05/13 00:10:01;;;;;;;;;;;;;;;25.79;22.29;98552.19;5063544;28;19936;-85
2023/05/13 00:12:27;;;;;;;;;;;;;;;25.87;22.52;98550.78;5053386;28;19920;-85
2023/05/13 00:14:53;;;;;;;;;;;;;;;26.15;22.14;98553.00;5063770;28;20342;-85
2023/05/13 00:17:19;;;;;;;;;;;;;;;26.20;22.25;98548.88;5054522;28;19921;-84
2023/05/13 00:19:45;;;;;;;;;;;;;;;25.97;22.54;98549.78;5038487;28;20427;-84
2023/05/13 00:22:11;;;;;;;;;;;;;;;25.89;22.26;98554.75;5059981;28;20010;-85
2023/05/13 00:24:37;;;;;;;;;;;;;;;25.82;22.53;98545.66;5035202;28;19962;-85
2023/05/13 00:27:03;;;;;;;;;;;;;;;26.00;22.23;98554.50;5051925;28;19921;-85
2023/05/13 00:29:30;;;;;;;;;;;;;;;26.15;22.07;98552.22;5067128;28;19941;-85
2023/05/13 00:31:56;;;;;;;;;;;;;;;26.33;22.19;98553.38;5057931;28;19925;-85
2023/05/13 00:34:23;;;;;;;;;;;;;;;26.47;22.16;98555.06;5061312;28;19932;-84
2023/05/13 00:36:49;;;;;;;;;;;;;;;26.56;21.94;98561.66;5047680;28;19947;-85
2023/05/13 00:39:15;;;;;;;;;;;;;;;26.16;22.25;98560.22;5053999;28;20005;-84
2023/05/13 00:41:41;;;;;;;;;;;;;;;25.42;23.46;98565.34;5038106;28;19921;-84
2023/05/13 00:44:07;;;;;;;;;;;;;;;25.25;23.56;98566.47;5049986;28;19921;-85
2023/05/13 00:46:33;;;;;;;;;;;;;;;25.62;23.63;98562.59;5060464;28;19921;-84
2023/05/13 00:49:00;;;;;;;;;;;;;;;25.83;23.32;98558.53;5047291;28;20379;-84
2023/05/13 00:51:26;;;;;;;;;;;;;;;26.05;23.32;98568.06;5051975;28;20438;-84
2023/05/13 00:53:52;;;;;;;;;;;;;;;26.05;23.02;98560.44;5061658;28;19932;-85
2023/05/13 00:56:20;;;;;;;;;;;;;;;26.17;22.94;98572.25;5055737;28;20384;-85
2023/05/13 00:58:46;;;;;;;;;;;;;;;26.22;23.09;98572.53;5048566;28;19946;-85
2023/05/13 01:01:32;;;;;;;;;;;;;;;26.20;22.42;98574.22;5048866;28;19980;-85
2023/05/13 01:03:58;;;;;;;;;;;;;;;25.82;22.71;98571.00;5049151;28;19920;-85
2023/05/13 01:06:43;;;;;;;;;;;;;;;25.88;22.86;98572.84;5068678;28;19921;-85
2023/05/13 01:09:23;;;;;;;;;;;;;;;25.91;23.01;98582.44;5068943;28;19921;-85
2023/05/13 01:11:51;;;;;;;;;;;;;;;26.23;22.51;98582.59;5072413;28;19925;-85
2023/05/13 01:14:40;;;;;;;;;;;;;;;26.36;22.21;98588.31;5068559;28;19932;-85
2023/05/13 01:17:12;;;;;;;;;;;;;;;26.24;22.52;98592.59;5063722;28;19924;-84
2023/05/13 01:19:53;;;;;;;;;;;;;;;26.37;22.43;98596.31;5073175;28;19916;-84
2023/05/13 01:22:19;;;;;;;;;;;;;;;26.21;22.67;98590.66;5079419;28;20011;-84
2023/05/13 01:24:45;;;;;;;;;;;;;;;25.96;22.92;98593.19;5073571;28;20015;-84
2023/05/13 01:27:11;;;;;;;;;;;;;;;25.86;22.99;98591.41;5076199;28;19931;-84
2023/05/13 01:29:39;;;;;;;;;;;;;;;25.86;23.02;98592.19;5075746;28;19916;-84
2023/05/13 01:32:06;;;;;;;;;;;;;;;25.66;23.50;98597.03;5067674;28;19931;-85
2023/05/13 01:34:33;;;;;;;;;;;;;;;25.57;23.60;98596.81;5075518;28;20050;-84
2023/05/13 01:36:59;;;;;;;;;;;;;;;25.64;23.94;98601.50;5076422;28;19935;-84
2023/05/13 01:39:27;;;;;;;;;;;;;;;25.86;23.45;98597.03;5074311;28;19920;-85
2023/05/13 01:41:53;;;;;;;;;;;;;;;26.13;23.14;98591.25;5068873;28;19921;-85
2023/05/13 01:44:19;;;;;;;;;;;;;;;26.10;23.05;98598.56;5075819;28;19927;-85
2023/05/13 01:46:47;;;;;;;;;;;;;;;26.16;22.55;98599.63;5071558;28;20384;-85
2023/05/13 01:49:13;;;;;;;;;;;;;;;26.30;22.85;98598.53;5068552;28;20346;-84
2023/05/13 01:51:40;;;;;;;;;;;;;;;26.42;22.38;98598.63;5075085;28;20379;-85
2023/05/13 01:54:06;;;;;;;;;;;;;;;26.38;22.36;98595.09;5069013;28;19921;-84
2023/05/13 01:56:32;;;;;;;;;;;;;;;26.45;22.13;98600.56;5067288;28;19920;-84
2023/05/13 01:58:58;;;;;;;;;;;;;;;26.34;22.19;98596.41;5084461;28;19968;-84
2023/05/13 02:01:24;;;;;;;;;;;;;;;26.43;22.16;98600.22;5083895;28;19920;-84
2023/05/13 02:03:50;;;;;;;;;;;;;;;26.52;21.98;98600.41;5089909;28;20057;-84
2023/05/13 02:06:16;;;;;;;;;;;;;;;26.18;22.42;98594.38;5092857;28;19916;-84
2023/05/13 02:08:42;;;;;;;;;;;;;;;26.01;23.09;98598.31;5075012;28;20008;-84
2023/05/13 02:11:08;;;;;;;;;;;;;;;25.98;22.75;98599.19;5088136;28;19923;-84
2023/05/13 02:13:34;;;;;;;;;;;;;;;25.81;22.81;98603.19;5087830;28;19924;-84
2023/05/13 02:16:00;;;;;;;;;;;;;;;25.72;22.95;98598.13;5067806;28;19989;-84
2023/05/13 02:18:26;;;;;;;;;;;;;;;25.66;23.20;98604.69;5070408;28;19924;-84
2023/05/13 02:20:52;;;;;;;;;;;;;;;25.53;23.46;98606.56;5069232;28;20398;-84
2023/05/13 02:23:18;;;;;;;;;;;;;;;25.57;23.59;98612.91;5071496;28;19921;-84
2023/05/13 02:25:44;;;;;;;;;;;;;;;25.61;23.52;98613.63;5069181;28;19994;-84
2023/05/13 02:28:10;;;;;;;;;;;;;;;25.61;23.45;98603.16;5086421;28;20330;-84
2023/05/13 02:30:36;;;;;;;;;;;;;;;25.61;23.55;98608.78;5070264;28;19916;-84
2023/05/13 02:33:02;;;;;;;;;;;;;;;25.69;23.35;98603.81;5068829;28;19920;-84
2023/05/13 02:35:29;;;;;;;;;;;;;;;25.80;23.21;98612.84;5075956;28;19920;-84
2023/05/13 02:37:55;;;;;;;;;;;;;;;25.97;22.98;98597.63;5067305;28;19923;-84
2023/05/13 02:40:21;;;;;;;;;;;;;;;25.94;22.96;98606.91;5068423;28;19942;-84
2023/05/13 02:42:47;;;;;;;;;;;;;;;25.86;23.17;98608.28;5080256;28;19944;-84
2023/05/13 02:45:13;;;;;;;;;;;;;;;25.81;23.12;98601.13;5063162;28;19920;-84
2023/05/13 02:47:39;;;;;;;;;;;;;;;26.08;22.99;98610.22;5067576;28;19931;-84
2023/05/13 02:50:06;;;;;;;;;;;;;;;26.15;23.02;98605.69;5073052;28;19926;-85
2023/05/13 02:52:35;;;;;;;;;;;;;;;26.28;22.89;98607.38;5082334;28;19924;-85
2023/05/13 02:55:02;;;;;;;;;;;;;;;26.50;22.41;98616.94;5075276;28;20053;-85
2023/05/13 02:57:28;;;;;;;;;;;;;;;26.54;22.29;98617.66;5086785;28;19926;-85
2023/05/13 02:59:54;;;;;;;;;;;;;;;26.28;22.94;98617.88;5076404;28;20023;-84
2023/05/13 03:02:20;;;;;;;;;;;;;;;26.29;22.78;98619.44;5080494;28;19926;-84
2023/05/13 03:04:46;;;;;;;;;;;;;;;26.07;23.00;98630.34;5089637;28;19920;-84
2023/05/13 03:07:12;;;;;;;;;;;;;;;25.96;23.24;98624.16;5087131;28;19921;-85
2023/05/13 03:09:41;;;;;;;;;;;;;;;26.14;23.74;98621.78;5074781;28;19916;-84
2023/05/13 03:12:07;;;;;;;;;;;;;;;26.35;23.27;98621.31;5078590;28;20318;-84
2023/05/13 03:14:35;;;;;;;;;;;;;;;26.46;23.52;98626.72;5082943;28;20019;-84
2023/05/13 03:17:02;;;;;;;;;;;;;;;26.66;22.88;98627.44;5087624;28;19924;-84
2023/05/13 03:19:28;;;;;;;;;;;;;;;26.55;23.53;98627.69;5076914;28;19920;-84
2023/05/13 03:21:54;;;;;;;;;;;;;;;26.52;22.95;98633.41;5077151;28;19924;-84
2023/05/13 03:24:20;;;;;;;;;;;;;;;26.56;23.20;98628.47;5083226;28;19969;-84
2023/05/13 03:26:46;;;;;;;;;;;;;;;26.32;23.68;98624.22;5063132;28;19982;-84
2023/05/13 03:29:12;;;;;;;;;;;;;;;26.29;23.96;98625.88;5085478;28;19920;-84
2023/05/13 03:31:38;;;;;;;;;;;;;;;26.23;23.70;98627.63;5074220;28;19916;-84
2023/05/13 03:34:04;;;;;;;;;;;;;;;26.24;24.35;98625.59;5067299;28;19917;-84
2023/05/13 03:36:31;;;;;;;;;;;;;;;26.39;23.80;98624.84;5081256;28;19926;-85
2023/05/13 03:38:57;;;;;;;;;;;;;;;26.41;24.27;98630.03;5082434;28;19924;-84
2023/05/13 03:41:23;;;;;;;;;;;;;;;26.61;24.05;98647.66;5073612;28;19916;-84
2023/05/13 03:43:49;;;;;;;;;;;;;;;26.89;23.71;98646.22;5074289;28;19939;-84
2023/05/13 03:46:15;;;;;;;;;;;;;;;26.97;23.93;98640.00;5073148;28;19928;-85
2023/05/13 03:48:41;;;;;;;;;;;;;;;27.36;22.95;98630.53;5084202;28;19920;-85
2023/05/13 03:51:07;;;;;;;;;;;;;;;27.20;23.49;98636.97;5073033;28;19923;-84
2023/05/13 03:53:33;;;;;;;;;;;;;;;27.06;23.82;98645.81;5074130;28;19917;-85
2023/05/13 03:55:59;;;;;;;;;;;;;;;27.31;23.07;98642.34;5062320;28;19920;-84
2023/05/13 03:58:25;;;;;;;;;;;;;;;27.00;23.57;98646.78;5062660;28;19931;-84
2023/05/13 04:00:51;;;;;;;;;;;;;;;27.50;22.66;98644.28;5073469;28;19928;-84
2023/05/13 04:03:18;;;;;;;;;;;;;;;27.30;22.83;98647.19;5069863;28;19920;-84
2023/05/13 04:05:47;;;;;;;;;;;;;;;27.15;23.22;98653.63;5058648;28;20436;-84
2023/05/13 04:08:13;;;;;;;;;;;;;;;27.24;22.90;98651.78;5064440;28;20014;-84
2023/05/13 04:10:39;;;;;;;;;;;;;;;27.20;23.32;98658.75;5078625;28;20372;-84
2023/05/13 04:13:05;;;;;;;;;;;;;;;27.40;22.89;98657.44;5050827;28;19928;-84
2023/05/13 04:15:32;;;;;;;;;;;;;;;27.14;23.92;98658.47;5072026;28;19920;-84
2023/05/13 04:17:58;;;;;;;;;;;;;;;27.39;23.67;98650.22;5076454;28;19967;-84
2023/05/13 04:20:24;;;;;;;;;;;;;;;27.55;23.07;98654.22;5086004;28;19982;-84
2023/05/13 04:22:50;;;;;;;;;;;;;;;27.81;22.96;98662.38;5077127;28;19920;-85
2023/05/13 04:25:17;;;;;;;;;;;;;;;27.85;23.78;98651.75;5069990;28;19931;-84
2023/05/13 04:27:43;;;;;;;;;;;;;;;28.00;23.27;98655.81;5073025;28;20422;-85
2023/05/13 04:30:09;;;;;;;;;;;;;;;28.15;22.74;98647.69;5079862;28;19927;-85
2023/05/13 04:32:35;;;;;;;;;;;;;;;28.22;23.36;98661.59;5086743;28;19947;-85
2023/05/13 04:35:01;;;;;;;;;;;;;;;28.51;22.62;98668.00;5072978;28;19929;-85
2023/05/13 04:37:27;;;;;;;;;;;;;;;28.55;22.21;98659.41;5080542;28;19920;-85
2023/05/13 04:39:53;;;;;;;;;;;;;;;28.08;22.76;98660.00;5088945;28;19963;-85
2023/05/13 04:42:19;;;;;;;;;;;;;;;28.03;23.37;98668.22;5075917;28;20324;-85
2023/05/13 04:44:45;;;;;;;;;;;;;;;28.13;22.92;98664.28;5061111;28;19932;-85
2023/05/13 04:47:11;;;;;;;;;;;;;;;28.34;23.16;98672.16;5085076;28;19925;-85
2023/05/13 04:49:37;;;;;;;;;;;;;;;28.61;22.67;98672.53;5076799;28;19920;-85
2023/05/13 04:52:04;;;;;;;;;;;;;;;28.61;23.91;98674.59;5079811;28;19924;-85
2023/05/13 04:54:30;;;;;;;;;;;;;;;29.10;22.94;98675.03;5072127;28;19920;-85
2023/05/13 04:56:56;;;;;;;;;;;;;;;29.46;22.59;98677.47;5088779;28;20434;-85
2023/05/13 04:59:22;;;;;;;;;;;;;;;29.47;22.80;98682.69;5081228;28;19929;-85
2023/05/13 05:01:48;;;;;;;;;;;;;;;29.48;23.18;98675.78;5031899;28;19921;-87
2023/05/13 05:04:14;;;;;;;;;;;;;;;29.98;22.48;98675.63;5027552;28;19924;-86
2023/05/13 05:06:40;;;;;;;;;;;;;;;30.23;21.89;98673.91;5046992;28;19921;-86
2023/05/13 05:09:07;;;;;;;;;;;;;;;29.92;22.29;98677.44;5059352;28;20404;-85
2023/05/13 05:11:33;;;;;;;;;;;;;;;30.11;21.13;98677.63;5056788;28;20372;-85
2023/05/13 05:13:59;;;;;;;;;;;;;;;29.43;22.63;98693.31;5065757;28;20301;-86
2023/05/13 05:16:25;;;;;;;;;;;;;;;29.46;22.83;98689.59;5050594;28;19931;-85
2023/05/13 05:18:51;;;;;;;;;;;;;;;29.52;22.30;98687.78;5070486;28;19920;-86
2023/05/13 05:21:17;;;;;;;;;;;;;;;29.82;22.51;98687.16;5061835;28;19967;-86
2023/05/13 05:23:43;;;;;;;;;;;;;;;29.85;22.78;98688.28;5065208;28;19943;-83
2023/05/13 05:26:09;;;;;;;;;;;;;;;30.09;22.67;98683.72;5065858;28;19920;-83
2023/05/13 05:28:37;;;;;;;;;;;;;;;30.28;21.88;98687.47;5059914;28;19931;-83
2023/05/13 05:31:03;;;;;;;;;;;;;;;30.46;21.58;98694.06;5056149;28;19966;-84
2023/05/13 05:33:29;;;;;;;;;;;;;;;29.94;22.40;98696.84;5066806;28;20584;-83
2023/05/13 05:35:55;;;;;;;;;;;;;;;30.38;21.23;98697.66;5067963;28;19996;-84
2023/05/13 05:38:24;;;;;;;;;;;;;;;30.05;22.49;98695.19;5068999;28;20011;-84
2023/05/13 05:40:50;;;;;;;;;;;;;;;30.10;22.21;98688.16;5067778;28;19956;-84
2023/05/13 05:43:16;;;;;;;;;;;;;;;30.25;22.70;98697.69;5054680;28;19929;-84
2023/05/13 05:45:42;;;;;;;;;;;;;;;30.36;21.92;98697.34;5064093;28;20368;-85
2023/05/13 05:48:08;;;;;;;;;;;;;;;30.23;21.16;98696.56;5064751;28;19933;-85
2023/05/13 05:50:35;;;;;;;;;;;;;;;30.29;20.57;98689.88;5070149;28;20011;-85
2023/05/13 05:53:01;;;;;;;;;;;;;;;28.59;21.84;98691.97;5068367;28;19921;-84
2023/05/13 05:55:27;;;;;;;;;;;;;;;29.41;22.40;98701.47;5073011;28;19921;-84
2023/05/13 05:57:55;;;;;;;;;;;;;;;29.71;21.85;98700.06;5071784;28;19916;-84
2023/05/13 06:00:21;;;;;;;;;;;;;;;30.38;21.47;98687.13;5068185;28;20003;-85
2023/05/13 06:02:50;;;;;;;;;;;;;;;30.46;22.61;98696.13;5061000;28;19920;-84
2023/05/13 06:05:16;;;;;;;;;;;;;;;30.06;21.03;98693.13;5080615;28;19921;-84
2023/05/13 06:07:42;;;;;;;;;;;;;;;30.00;21.41;98692.16;5067984;28;19928;-86
2023/05/13 06:10:08;;;;;;;;;;;;;;;30.33;20.92;98686.91;5070538;28;20233;-86
2023/05/13 06:12:34;;;;;;;;;;;;;;;30.18;20.94;98695.13;5063416;28;19955;-86
2023/05/13 06:15:00;;;;;;;;;;;;;;;29.37;21.52;98707.28;5066902;28;19927;-86
2023/05/13 06:17:29;;;;;;;;;;;;;;;30.02;22.24;98698.16;5066928;28;19936;-85
2023/05/13 06:19:55;;;;;;;;;;;;;;;29.76;20.73;98705.16;5066551;28;19931;-87
2023/05/13 06:22:21;;;;;;;;;;;;;;;29.55;21.24;98706.66;5063020;28;19921;-88
2023/05/13 06:24:47;;;;;;;;;;;;;;;29.80;21.65;98715.09;5046320;28;19928;-88
2023/05/13 06:27:13;;;;;;;;;;;;;;;29.93;21.44;98713.03;5069353;28;19956;-89
2023/05/13 06:29:39;;;;;;;;;;;;;;;29.90;20.23;98705.44;5034621;28;19972;-87
2023/05/13 06:32:06;;;;;;;;;;;;;;;29.75;20.26;98712.84;5061624;28;20361;-88
2023/05/13 06:34:32;;;;;;;;;;;;;;;29.96;21.36;98711.31;5060810;28;19967;-88
2023/05/13 06:37:00;;;;;;;;;;;;;;;29.42;22.14;98712.38;5060521;28;19976;-87
2023/05/13 06:39:26;;;;;;;;;;;;;;;29.79;21.50;98712.72;5061224;28;19933;-89
2023/05/13 06:41:52;;;;;;;;;;;;;;;30.22;22.11;98698.63;5060466;28;20011;-88
2023/05/13 06:44:21;;;;;;;;;;;;;;;30.22;20.11;98700.66;5050386;28;20055;-88
2023/05/13 06:46:48;;;;;;;;;;;;;;;30.53;21.27;98695.84;5049810;28;20380;-88
2023/05/13 06:49:13;;;;;;;;;;;;;;;29.51;21.61;98711.66;5059041;28;19928;-89
2023/05/13 06:51:40;;;;;;;;;;;;;;;29.34;21.61;98707.38;5055142;28;19920;-88
2023/05/13 06:54:06;;;;;;;;;;;;;;;28.97;21.51;98713.81;5039641;28;19929;-87
2023/05/13 06:56:33;;;;;;;;;;;;;;;28.84;21.95;98704.56;5049488;28;20025;-88
2023/05/13 06:58:59;;;;;;;;;;;;;;;28.68;22.31;98711.13;5051261;28;20362;-87
2023/05/13 07:01:25;;;;;;;;;;;;;;;29.50;21.62;98712.88;5059451;28;19932;-89
2023/05/13 07:03:51;;;;;;;;;;;;;;;29.17;21.51;98706.69;5033596;28;19928;-88
2023/05/13 07:06:17;;;;;;;;;;;;;;;28.62;21.78;98713.69;5056732;28;19932;-87
2023/05/13 07:08:43;;;;;;;;;;;;;;;28.36;22.95;98711.22;5065454;28;20372;-87
2023/05/13 07:11:09;;;;;;;;;;;;;;;28.37;24.40;98707.97;5058196;28;19917;-87
2023/05/13 07:13:35;;;;;;;;;;;;;;;26.53;26.11;98705.41;5060733;28;19935;-87
2023/05/13 07:16:01;;;;;;;;;;;;;;;26.60;25.22;98702.44;5066264;28;19997;-85
2023/05/13 07:18:28;;;;;;;;;;;;;;;27.48;23.00;98705.19;5062915;28;20395;-85
2023/05/13 07:20:55;;;;;;;;;;;;;;;28.88;23.25;98700.38;5026979;28;20464;-85
2023/05/13 07:23:21;;;;;;;;;;;;;;;29.20;20.71;98707.84;5062379;28;19921;-88
2023/05/13 07:25:51;;;;;;;;;;;;;;;29.55;19.75;98703.81;5069757;28;19993;-86
2023/05/13 07:28:18;;;;;;;;;;;;;;;29.37;20.25;98707.28;5068972;28;19924;-87
2023/05/13 07:30:45;;;;;;;;;;;;;;;28.59;22.59;98703.28;5066891;28;20383;-86
2023/05/13 07:33:11;;;;;;;;;;;;;;;27.00;23.79;98686.25;5068768;28;19928;-85
2023/05/13 07:35:37;;;;;;;;;;;;;;;27.59;24.08;98700.84;5062641;28;19924;-87
2023/05/13 07:38:03;;;;;;;;;;;;;;;27.05;22.99;98694.94;5069594;28;19916;-87
2023/05/13 07:40:29;;;;;;;;;;;;;;;25.30;26.64;98720.56;5064531;28;19924;-86
2023/05/13 07:42:55;;;;;;;;;;;;;;;25.78;25.69;98708.91;5072553;28;19920;-83
2023/05/13 07:45:21;;;;;;;;;;;;;;;25.84;26.07;98710.00;5067221;28;19920;-84
2023/05/13 07:47:47;;;;;;;;;;;;;;;26.65;24.81;98708.31;5063678;28;20376;-85
2023/05/13 07:50:13;;;;;;;;;;;;;;;27.52;22.93;98709.50;5063727;28;19932;-84
2023/05/13 07:52:39;;;;;;;;;;;;;;;26.34;23.83;98712.66;5065048;28;19924;-87
2023/05/13 07:55:06;;;;;;;;;;;;;;;25.75;24.89;98706.97;5066509;28;20396;-85
2023/05/13 07:57:32;;;;;;;;;;;;;;;27.50;23.08;98714.78;5059689;28;19966;-85
2023/05/13 07:59:58;;;;;;;;;;;;;;;26.57;25.17;98714.56;5073942;28;19921;-86
2023/05/13 08:02:24;;;;;;;;;;;;;;;26.34;25.86;98704.19;5067527;28;20012;-89
2023/05/13 08:04:50;;;;;;;;;;;;;;;26.64;25.73;98709.56;5056749;28;20372;-86
2023/05/13 08:07:16;;;;;;;;;;;;;;;26.65;24.58;98707.56;5062649;28;19936;-85
2023/05/13 08:09:42;;;;;;;;;;;;;;;26.89;24.54;98714.66;5068029;28;20292;-85
2023/05/13 08:12:08;;;;;;;;;;;;;;;27.12;24.84;98710.91;5071527;28;20280;-85
2023/05/13 08:14:34;;;;;;;;;;;;;;;27.62;23.11;98714.09;5068004;28;19924;-85
2023/05/13 08:17:00;;;;;;;;;;;;;;;28.18;22.76;98708.94;5070725;28;19929;-85
2023/05/13 08:19:27;;;;;;;;;;;;;;;28.36;23.51;98697.09;5069795;28;19916;-83
2023/05/13 08:21:53;;;;;;;;;;;;;;;27.69;21.93;98702.59;5063517;28;19927;-83
2023/05/13 08:24:19;;;;;;;;;;;;;;;28.72;21.73;98704.09;5054530;28;19920;-83
2023/05/13 08:26:46;;;;;;;;;;;;;;;27.66;22.33;98697.03;5064865;28;19920;-85
2023/05/13 08:29:14;;;;;;;;;;;;;;;28.77;22.00;98705.59;5059540;28;20353;-85
2023/05/13 08:31:40;;;;;;;;;;;;;;;28.41;22.48;98705.81;5055264;28;20395;-86
2023/05/13 08:34:07;;;;;;;;;;;;;;;28.48;20.02;98704.81;5065747;28;19916;-87
2023/05/13 08:36:33;;;;;;;;;;;;;;;28.38;20.59;98708.78;5063715;28;20023;-85
2023/05/13 08:39:00;;;;;;;;;;;;;;;29.05;19.92;98710.34;5050034;28;20054;-87
2023/05/13 08:41:27;;;;;;;;;;;;;;;28.84;21.28;98696.88;5071447;28;20011;-88
2023/05/13 08:43:55;;;;;;;;;;;;;;;27.35;23.70;98707.91;5068932;28;19921;-86
2023/05/13 08:46:23;;;;;;;;;;;;;;;28.10;22.64;98706.78;5059822;28;19948;-82
2023/05/13 08:48:50;;;;;;;;;;;;;;;27.79;22.00;98710.00;5045894;28;19929;-86
2023/05/13 08:51:16;;;;;;;;;;;;;;;26.97;25.20;98698.38;5049428;28;19931;-87
2023/05/13 08:53:43;;;;;;;;;;;;;;;26.28;24.20;98703.09;5060628;28;19928;-86
2023/05/13 08:56:09;;;;;;;;;;;;;;;26.49;24.41;98697.03;5070948;28;19928;-87
2023/05/13 08:58:35;;;;;;;;;;;;;;;28.97;21.00;98692.00;5056523;28;20284;-82
2023/05/13 09:01:02;;;;;;;;;;;;;;;29.67;19.44;98688.84;5059282;28;19927;-82
2023/05/13 09:03:28;;;;;;;;;;;;;;;30.43;20.38;98683.69;5040415;28;19967;-82
2023/05/13 09:05:54;;;;;;;;;;;;;;;30.94;19.83;98678.44;5066792;28;19925;-82
2023/05/13 09:08:20;;;;;;;;;;;;;;;30.64;20.34;98676.41;5061825;28;19974;-83
2023/05/13 09:10:46;;;;;;;;;;;;;;;31.03;18.76;98680.53;5054758;28;19924;-82
2023/05/13 09:13:13;;;;;;;;;;;;;;;30.43;21.59;98682.88;5063385;28;19921;-83
2023/05/13 09:15:43;;;;;;;;;;;;;;;29.51;21.70;98696.72;5066282;28;19967;-83
2023/05/13 09:18:09;;;;;;;;;;;;;;;29.29;21.63;98700.25;5049452;28;19925;-83
2023/05/13 09:20:36;;;;;;;;;;;;;;;29.21;22.29;98695.31;5071990;28;19924;-83
2023/05/13 09:23:03;;;;;;;;;;;;;;;29.65;21.09;98693.38;5059869;28;19928;-84
2023/05/13 09:25:29;;;;;;;;;;;;;;;29.87;19.50;98688.59;5061614;28;20296;-84
2023/05/13 09:27:57;;;;;;;;;;;;;;;29.91;19.98;98681.56;5063854;28;20072;-84
2023/05/13 09:30:24;;;;;;;;;;;;;;;31.08;18.54;98675.03;5057276;28;19920;-83
2023/05/13 09:33:10;;;;;;;;;;;;;;;31.40;19.33;98676.53;5059444;28;20282;-83
2023/05/13 09:35:39;;;;;;;;;;;;;;;30.51;20.17;98676.47;5067041;28;20317;-86
2023/05/13 09:38:33;;;;;;;;;;;;;;;29.69;22.60;98691.22;5064781;28;20292;-83
2023/05/13 09:41:01;;;;;;;;;;;;;;;29.25;20.32;98684.66;5054651;28;20639;-84
2023/05/13 09:43:30;;;;;;;;;;;;;;;29.13;19.78;98683.38;5061245;28;19921;-85
2023/05/13 09:46:00;;;;;;;;;;;;;;;29.36;20.29;98687.91;5068745;28;19924;-85
2023/05/13 09:48:27;;;;;;;;;;;;;;;28.30;22.93;98671.47;5062866;28;19943;-87
2023/05/13 09:50:56;;;;;;;;;;;;;;;28.38;21.58;98681.28;5068444;28;20363;-86
2023/05/13 09:53:22;;;;;;;;;;;;;;;27.20;22.58;98684.13;5056044;28;20367;-84
2023/05/13 09:55:52;;;;;;;;;;;;;;;28.95;20.30;98669.06;5059559;28;19921;-84
2023/05/13 09:58:21;;;;;;;;;;;;;;;29.71;21.08;98671.75;5061252;28;19921;-84
2023/05/13 10:00:47;;;;;;;;;;;;;;;30.18;21.36;98655.47;5054808;28;19936;-84
2023/05/13 10:03:14;;;;;;;;;;;;;;;28.62;21.72;98665.66;5059837;28;21226;-86
2023/05/13 10:05:40;;;;;;;;;;;;;;;28.44;21.30;98673.06;5064423;28;19920;-85
2023/05/13 10:08:08;;;;;;;;;;;;;;;28.49;22.24;98681.78;5069947;28;20023;-86
2023/05/13 10:10:35;;;;;;;;;;;;;;;29.58;20.23;98685.13;5065413;28;19928;-85
2023/05/13 10:13:05;;;;;;;;;;;;;;;30.01;19.79;98679.59;5063594;28;19924;-85
2023/05/13 10:15:32;;;;;;;;;;;;;;;29.57;20.44;98681.50;5063530;28;20435;-86
2023/05/13 10:17:59;;;;;;;;;;;;;;;30.20;21.28;98686.94;5063043;28;19971;-86
2023/05/13 10:20:25;;;;;;;;;;;;;;;28.17;22.90;98684.75;5060394;28;19920;-85
2023/05/13 10:22:51;;;;;;;;;;;;;;;28.71;21.34;98668.59;5057105;28;19921;-83
2023/05/13 10:25:18;;;;;;;;;;;;;;;28.02;22.88;98678.75;5057047;28;20023;-86
2023/05/13 10:27:44;;;;;;;;;;;;;;;27.93;23.67;98677.78;5058109;28;19920;-87
2023/05/13 10:30:10;;;;;;;;;;;;;;;28.71;20.48;98679.09;5045795;28;19924;-83
2023/05/13 10:32:40;;;;;;;;;;;;;;;30.26;19.43;98679.44;5066038;28;19970;-85
2023/05/13 10:35:06;;;;;;;;;;;;;;;30.73;19.92;98665.91;5065242;28;19986;-85
2023/05/13 10:37:42;;;;;;;;;;;;;;;30.46;20.63;98673.44;5069403;28;19920;-86
2023/05/13 10:40:34;;;;;;;;;;;;;;;29.63;22.28;98673.25;5067913;28;19962;-87
2023/05/13 10:43:13;;;;;;;;;;;;;;;28.88;20.69;98680.59;5068094;28;19928;-84
2023/05/13 10:45:43;;;;;;;;;;;;;;;28.25;22.39;98674.03;5068983;28;19921;-85
2023/05/13 10:48:10;;;;;;;;;;;;;;;30.37;20.59;98679.06;5053316;28;19924;-86
2023/05/13 10:50:40;;;;;;;;;;;;;;;31.96;19.15;98673.28;5051940;28;19925;-85
2023/05/13 10:53:07;;;;;;;;;;;;;;;29.06;21.60;98669.50;5051562;28;20644;-84
2023/05/13 10:55:38;;;;;;;;;;;;;;;28.74;22.20;98666.91;5047897;28;19924;-86
2023/05/13 10:58:10;;;;;;;;;;;;;;;27.86;23.67;98678.75;5050248;28;19920;-86
2023/05/13 11:00:37;;;;;;;;;;;;;;;28.39;20.62;98670.78;5052671;28;19950;-87
2023/05/13 11:03:09;;;;;;;;;;;;;;;27.83;20.72;98673.19;5049465;28;19960;-89
2023/05/13 11:05:39;;;;;;;;;;;;;;;28.94;21.64;98669.50;5032696;28;20058;-86
2023/05/13 11:08:05;;;;;;;;;;;;;;;29.49;19.93;98665.25;5047288;28;19917;-87
2023/05/13 11:10:32;;;;;;;;;;;;;;;28.20;21.65;98652.78;5045690;28;20368;-87
2023/05/13 11:13:13;;;;;;;;;;;;;;;27.69;22.60;98668.75;5031620;28;19928;-86
2023/05/13 11:15:42;;;;;;;;;;;;;;;28.00;22.42;98669.94;5044518;28;19920;-86
2023/05/13 11:18:09;;;;;;;;;;;;;;;28.91;22.33;98674.03;5054304;28;19976;-84
2023/05/13 11:20:36;;;;;;;;;;;;;;;29.89;21.36;98664.25;5052062;28;19999;-85
2023/05/13 11:23:02;;;;;;;;;;;;;;;30.86;19.91;98653.63;5047673;28;19975;-86
2023/05/13 11:25:28;;;;;;;;;;;;;;;30.73;19.47;98660.22;5048647;28;20391;-84
2023/05/13 11:27:54;;;;;;;;;;;;;;;30.33;19.83;98667.09;5044595;28;19925;-85
2023/05/13 11:30:21;;;;;;;;;;;;;;;29.44;20.71;98675.13;5042512;28;20261;-85
2023/05/13 11:32:50;;;;;;;;;;;;;;;28.47;23.17;98672.94;5050176;28;19921;-83
2023/05/13 11:35:18;;;;;;;;;;;;;;;28.03;22.60;98671.84;5052456;28;19925;-84
2023/05/13 11:37:44;;;;;;;;;;;;;;;27.74;23.91;98664.59;5048949;28;19965;-83
2023/05/13 11:40:10;;;;;;;;;;;;;;;29.29;21.13;98657.81;5040309;28;19921;-84
2023/05/13 11:42:37;;;;;;;;;;;;;;;30.03;21.20;98666.56;5045668;28;19924;-82
2023/05/13 11:45:04;;;;;;;;;;;;;;;30.76;19.15;98661.31;5048852;28;20014;-84
2023/05/13 11:47:30;;;;;;;;;;;;;;;29.07;22.54;98665.44;5046746;28;19948;-85
2023/05/13 11:49:57;;;;;;;;;;;;;;;29.22;22.35;98677.09;5050133;28;20008;-86
2023/05/13 11:52:23;;;;;;;;;;;;;;;29.09;20.24;98679.91;5050287;28;19921;-85
2023/05/13 11:54:52;;;;;;;;;;;;;;;29.91;20.59;98664.56;5055525;28;19920;-86
2023/05/13 11:57:19;;;;;;;;;;;;;;;30.09;19.80;98663.91;5051674;28;20392;-86
2023/05/13 11:59:48;;;;;;;;;;;;;;;28.78;21.22;98673.22;5031348;28;20011;-84
2023/05/13 12:02:14;;;;;;;;;;;;;;;30.89;20.08;98664.09;5049514;28;19927;-84
2023/05/13 12:04:43;;;;;;;;;;;;;;;30.70;18.83;98657.50;5049220;28;19921;-85
2023/05/13 12:07:12;;;;;;;;;;;;;;;30.48;20.60;98665.28;5058808;28;20440;-84
2023/05/13 12:09:38;;;;;;;;;;;;;;;30.62;20.03;98659.84;5052048;28;19921;-86
2023/05/13 12:12:04;;;;;;;;;;;;;;;31.47;20.54;98659.22;5048602;28;19928;-85
2023/05/13 12:14:32;;;;;;;;;;;;;;;31.66;17.83;98660.03;5055652;28;19927;-86
2023/05/13 12:16:58;;;;;;;;;;;;;;;31.37;18.49;98658.38;5043025;28;19921;-87
2023/05/13 12:19:24;;;;;;;;;;;;;;;30.25;20.54;98654.41;5059891;28;19928;-87
2023/05/13 12:21:50;;;;;;;;;;;;;;;28.63;22.56;98663.63;5060994;28;20019;-86
2023/05/13 12:24:17;;;;;;;;;;;;;;;29.56;22.70;98656.50;5064633;28;20380;-85
2023/05/13 12:26:43;;;;;;;;;;;;;;;29.46;21.02;98671.81;5039282;28;20380;-84
2023/05/13 12:29:09;;;;;;;;;;;;;;;30.54;19.61;98663.41;5049306;28;20438;-84
2023/05/13 12:31:35;;;;;;;;;;;;;;;30.57;19.01;98654.78;5058777;28;19920;-85
2023/05/13 12:34:01;;;;;;;;;;;;;;;31.06;19.19;98662.56;5051061;28;19927;-84
2023/05/13 12:36:34;;;;;;;;;;;;;;;30.55;19.54;98660.13;5051497;28;19921;-83
2023/05/13 12:39:00;;;;;;;;;;;;;;;31.20;20.26;98667.66;5050578;28;19928;-84
2023/05/13 12:41:27;;;;;;;;;;;;;;;31.84;18.70;98666.50;5051593;28;19932;-85
2023/05/13 12:43:57;;;;;;;;;;;;;;;30.90;18.32;98666.44;5045114;28;19921;-84
2023/05/13 12:46:23;;;;;;;;;;;;;;;31.03;19.11;98660.66;5053998;28;20384;-87